Moreau, South Dakota
Current Conditions -  °F | °C
As of 8:55 PM on Friday 24 Oct 2014 (Local Time) from KPHP Reporting Station
Clear Clear  
Wind Chill: 47°   Ceiling: Unl
Heat Index: 49°   Visibility: 10mi
Dew Point: 36°   Wind: 5mph
Humidity: 61%   Direction: 290°WNW
Pressure: 30.06"   Gusts: NA
Location:  44.8511°N, 102.128°W
Report Text: KPHP 250255Z AUTO 29004KT 10SM CLR 09/02 A3006 RMK AO2 SLP183 T00940022 53020
Loading
Personal Weather Stations






























Interactive Weather Map
Tropical Storm Tracking
New forecast layout! Learn more

10-Day Weather Forecast

Advertisements
Track Severe Weather on mobile